createdAt,value
2022-12-24T00:06:06.847Z,13.23
2022-12-24T00:16:12.596Z,16.45
2022-12-24T00:19:26.271Z,17.00
2022-12-24T00:22:16.736Z,18.95
2022-12-24T00:24:44.927Z,19.40
2022-12-24T00:27:16.090Z,19.52
2022-12-24T00:29:48.926Z,19.48
2022-12-24T00:32:52.368Z,23.45
2022-12-24T00:35:22.264Z,19.50
2022-12-24T00:38:05.011Z,18.52
2022-12-24T00:40:57.404Z,22.70
2022-12-24T00:43:58.161Z,19.17
2022-12-24T00:46:47.579Z,16.88
2022-12-24T00:52:11.237Z,18.92
2022-12-24T00:57:57.730Z,12.18
2022-12-24T01:00:59.230Z,13.30
2022-12-24T01:06:58.354Z,11.95
2022-12-24T01:09:31.781Z,12.18
2022-12-24T01:12:09.926Z,16.63
2022-12-24T01:14:40.716Z,10.80
2022-12-24T01:20:00.228Z,10.35
2022-12-24T01:22:36.348Z,11.02
2022-12-24T01:25:08.772Z,10.88
2022-12-24T01:27:41.851Z,9.93
2022-12-24T01:30:22.829Z,10.20
2022-12-24T01:33:00.399Z,7.95
2022-12-24T01:35:32.792Z,7.53
2022-12-24T01:38:05.307Z,7.75
2022-12-24T01:40:40.100Z,5.90
2022-12-24T01:43:28.943Z,5.95
2022-12-24T01:46:04.455Z,6.68
2022-12-24T01:48:38.398Z,7.25
2022-12-24T01:51:12.817Z,7.28
2022-12-24T01:53:49.680Z,7.57
2022-12-24T01:56:22.108Z,4.22
2022-12-24T01:59:01.267Z,4.28
2022-12-24T02:01:31.300Z,4.97
2022-12-24T02:03:58.858Z,3.00
2022-12-24T02:06:34.792Z,2.83
2022-12-24T02:09:02.541Z,2.50
2022-12-24T02:11:34.814Z,2.50
2022-12-24T02:14:11.599Z,3.20
2022-12-24T02:16:52.755Z,2.58
2022-12-24T02:19:56.350Z,2.20
2022-12-24T02:22:33.647Z,1.80
2022-12-24T02:25:28.650Z,1.73
2022-12-24T02:28:36.417Z,4.15
2022-12-24T02:31:27.420Z,1.30
2022-12-24T02:34:04.872Z,1.73
2022-12-24T02:36:38.297Z,1.60
2022-12-24T02:39:17.414Z,2.65
2022-12-24T02:41:54.158Z,1.30
2022-12-24T02:44:38.382Z,1.58
2022-12-24T02:47:10.655Z,1.23
2022-12-24T02:49:44.125Z,2.17
2022-12-24T02:52:32.775Z,3.35
2022-12-24T02:55:10.276Z,4.85
2022-12-24T02:58:14.448Z,6.82
2022-12-24T03:01:07.553Z,7.35
2022-12-24T03:03:57.448Z,8.48
2022-12-24T03:06:39.552Z,5.25
2022-12-24T03:09:14.840Z,5.05
2022-12-24T03:11:55.592Z,4.75
2022-12-24T03:14:28.965Z,4.32
2022-12-24T03:17:06.887Z,4.93
2022-12-24T03:19:41.409Z,3.78
2022-12-24T03:22:21.836Z,2.90
2022-12-24T03:24:53.955Z,2.63
2022-12-24T03:27:28.909Z,2.30
2022-12-24T03:30:16.003Z,1.75
2022-12-24T03:32:53.551Z,2.03
2022-12-24T03:35:35.243Z,1.65
2022-12-24T03:38:13.989Z,1.30
2022-12-24T03:40:46.762Z,1.53
2022-12-24T03:43:22.618Z,2.13
2022-12-24T03:45:55.436Z,2.00
2022-12-24T03:48:32.877Z,2.03
2022-12-24T03:51:03.688Z,3.13
2022-12-24T03:53:45.873Z,2.70
2022-12-24T03:56:17.825Z,2.67
2022-12-24T03:58:48.344Z,2.00
2022-12-24T04:01:28.314Z,1.60
2022-12-24T04:04:06.920Z,1.50
2022-12-24T04:06:39.991Z,1.70
2022-12-24T04:09:17.354Z,1.20
2022-12-24T04:11:46.615Z,1.20
2022-12-24T04:14:16.272Z,1.20
2022-12-24T04:19:37.273Z,1.20
2022-12-24T04:22:15.766Z,1.95
2022-12-24T04:25:02.502Z,1.05
2022-12-24T04:27:34.407Z,1.20
2022-12-24T04:30:06.777Z,1.10
2022-12-24T04:32:50.820Z,1.30
2022-12-24T04:35:20.881Z,1.13
2022-12-24T04:37:53.356Z,1.15
2022-12-24T04:40:23.436Z,1.00
2022-12-24T04:42:57.660Z,1.55
2022-12-24T04:45:28.870Z,1.17
2022-12-24T04:48:13.646Z,1.30
2022-12-24T04:50:49.700Z,1.30
2022-12-24T04:53:28.556Z,1.15
2022-12-24T04:56:00.566Z,1.10
2022-12-24T04:58:27.795Z,1.25
2022-12-24T05:00:54.944Z,1.10
2022-12-24T05:03:22.752Z,1.10
2022-12-24T05:05:49.686Z,1.02
2022-12-24T05:08:23.712Z,1.10
2022-12-24T05:11:01.504Z,1.17
2022-12-24T05:13:44.084Z,1.23
2022-12-24T05:16:15.118Z,1.10
2022-12-24T05:18:45.695Z,1.00
2022-12-24T05:21:16.083Z,1.00
2022-12-24T05:23:47.067Z,1.05
2022-12-24T05:26:19.439Z,1.10
2022-12-24T05:28:48.280Z,1.20
2022-12-24T05:31:25.760Z,1.10
2022-12-24T05:33:58.459Z,1.80
2022-12-24T05:36:27.878Z,1.05
2022-12-24T05:39:01.986Z,1.27
2022-12-24T05:41:31.031Z,1.02
2022-12-24T05:44:01.100Z,1.30
2022-12-24T05:46:31.201Z,1.30
2022-12-24T05:49:01.198Z,1.05
2022-12-24T05:51:41.443Z,1.50
2022-12-24T05:54:17.493Z,0.93
2022-12-24T05:56:49.349Z,1.13
2022-12-24T05:59:18.849Z,1.10
2022-12-24T06:04:15.522Z,1.27
2022-12-24T06:06:44.458Z,1.15
2022-12-24T06:09:13.364Z,1.20
2022-12-24T06:11:45.219Z,2.00
2022-12-24T06:14:14.326Z,3.45
2022-12-24T06:16:49.739Z,2.80
2022-12-24T06:19:16.857Z,3.40
2022-12-24T06:22:03.393Z,2.90
2022-12-24T06:24:39.350Z,3.83
2022-12-24T06:27:07.916Z,4.40
2022-12-24T06:29:43.063Z,4.97
2022-12-24T06:32:09.986Z,4.18
2022-12-24T06:54:51.710Z,2.60
2022-12-24T07:01:47.822Z,2.40
2022-12-24T08:00:03.631Z,3.80
2022-12-24T08:47:39.762Z,1.50
2022-12-24T08:50:27.067Z,1.60
2022-12-24T08:52:56.694Z,2.08
2022-12-24T09:01:26.073Z,1.20
2022-12-24T09:04:29.643Z,1.20
2022-12-24T09:10:35.259Z,1.50
2022-12-24T09:22:54.164Z,1.40
2022-12-24T16:59:05.511Z,17.67
2022-12-24T17:01:55.551Z,16.52
2022-12-24T17:21:31.541Z,15.95
2022-12-24T19:28:03.358Z,20.15
2022-12-24T20:00:22.668Z,25.27
2022-12-24T20:03:04.019Z,25.17
2022-12-24T20:13:05.945Z,25.45
2022-12-24T20:29:50.893Z,17.05
2022-12-24T20:46:47.500Z,26.38
